sensor_id;sensor_type;location;lat;lon;timestamp;P1;durP1;ratioP1;P2;durP2;ratioP2
13349;SDS011;6744;53.190;6.576;2022-08-07T00:00:59;4.33;;;3.97;;
13349;SDS011;6744;53.190;6.576;2022-08-07T00:03:24;4.97;;;4.57;;
13349;SDS011;6744;53.190;6.576;2022-08-07T00:05:50;4.73;;;4.33;;
13349;SDS011;6744;53.190;6.576;2022-08-07T00:08:17;4.73;;;4.30;;
13349;SDS011;6744;53.190;6.576;2022-08-07T00:10:43;4.93;;;4.17;;
13349;SDS011;6744;53.190;6.576;2022-08-07T00:13:08;4.70;;;4.30;;
13349;SDS011;6744;53.190;6.576;2022-08-07T00:15:34;4.40;;;4.00;;
13349;SDS011;6744;53.190;6.576;2022-08-07T00:17:59;4.73;;;4.20;;
13349;SDS011;6744;53.190;6.576;2022-08-07T00:20:25;4.50;;;4.10;;
13349;SDS011;6744;53.190;6.576;2022-08-07T00:22:50;4.63;;;4.23;;
13349;SDS011;6744;53.190;6.576;2022-08-07T00:25:16;5.30;;;4.80;;
13349;SDS011;6744;53.190;6.576;2022-08-07T00:27:41;5.33;;;4.70;;
13349;SDS011;6744;53.190;6.576;2022-08-07T00:30:07;5.07;;;4.67;;
13349;SDS011;6744;53.190;6.576;2022-08-07T00:32:33;4.97;;;4.47;;
13349;SDS011;6744;53.190;6.576;2022-08-07T00:34:58;5.97;;;5.37;;
13349;SDS011;6744;53.190;6.576;2022-08-07T00:37:23;5.23;;;4.77;;
13349;SDS011;6744;53.190;6.576;2022-08-07T00:39:50;5.10;;;4.63;;
13349;SDS011;6744;53.190;6.576;2022-08-07T00:42:18;5.70;;;5.10;;
13349;SDS011;6744;53.190;6.576;2022-08-07T00:44:44;5.50;;;5.00;;
13349;SDS011;6744;53.190;6.576;2022-08-07T00:47:10;5.37;;;4.87;;
13349;SDS011;6744;53.190;6.576;2022-08-07T00:49:35;5.23;;;4.73;;
13349;SDS011;6744;53.190;6.576;2022-08-07T00:52:00;6.30;;;5.10;;
13349;SDS011;6744;53.190;6.576;2022-08-07T00:54:26;5.13;;;4.73;;
13349;SDS011;6744;53.190;6.576;2022-08-07T00:56:51;5.07;;;4.50;;
13349;SDS011;6744;53.190;6.576;2022-08-07T00:59:17;5.47;;;4.97;;
13349;SDS011;6744;53.190;6.576;2022-08-07T01:01:43;5.00;;;4.60;;
13349;SDS011;6744;53.190;6.576;2022-08-07T01:04:14;5.33;;;4.87;;
13349;SDS011;6744;53.190;6.576;2022-08-07T01:06:39;5.10;;;4.60;;
13349;SDS011;6744;53.190;6.576;2022-08-07T01:09:04;5.37;;;4.87;;
13349;SDS011;6744;53.190;6.576;2022-08-07T01:11:30;5.17;;;4.77;;
13349;SDS011;6744;53.190;6.576;2022-08-07T01:13:56;5.20;;;4.70;;
13349;SDS011;6744;53.190;6.576;2022-08-07T01:16:21;5.70;;;5.20;;
13349;SDS011;6744;53.190;6.576;2022-08-07T01:18:47;5.40;;;4.90;;
13349;SDS011;6744;53.190;6.576;2022-08-07T01:21:13;5.13;;;4.63;;
13349;SDS011;6744;53.190;6.576;2022-08-07T01:23:41;5.07;;;4.67;;
13349;SDS011;6744;53.190;6.576;2022-08-07T01:26:08;5.40;;;4.90;;
13349;SDS011;6744;53.190;6.576;2022-08-07T01:28:35;5.37;;;4.87;;
13349;SDS011;6744;53.190;6.576;2022-08-07T01:31:01;5.20;;;4.70;;
13349;SDS011;6744;53.190;6.576;2022-08-07T01:33:27;4.87;;;4.47;;
13349;SDS011;6744;53.190;6.576;2022-08-07T01:35:53;5.40;;;4.83;;
13349;SDS011;6744;53.190;6.576;2022-08-07T01:38:21;4.83;;;4.43;;
13349;SDS011;6744;53.190;6.576;2022-08-07T01:40:47;4.23;;;3.90;;
13349;SDS011;6744;53.190;6.576;2022-08-07T01:43:13;4.90;;;4.40;;
13349;SDS011;6744;53.190;6.576;2022-08-07T01:45:38;4.57;;;4.17;;
13349;SDS011;6744;53.190;6.576;2022-08-07T01:48:05;4.97;;;4.57;;
13349;SDS011;6744;53.190;6.576;2022-08-07T01:50:30;4.50;;;4.10;;
13349;SDS011;6744;53.190;6.576;2022-08-07T01:52:57;5.13;;;4.63;;
13349;SDS011;6744;53.190;6.576;2022-08-07T01:55:24;4.63;;;4.23;;
13349;SDS011;6744;53.190;6.576;2022-08-07T01:57:51;4.77;;;4.37;;
13349;SDS011;6744;53.190;6.576;2022-08-07T02:00:20;4.73;;;4.33;;
13349;SDS011;6744;53.190;6.576;2022-08-07T02:02:49;4.80;;;4.40;;
13349;SDS011;6744;53.190;6.576;2022-08-07T02:05:19;4.40;;;4.00;;
13349;SDS011;6744;53.190;6.576;2022-08-07T02:07:49;5.70;;;4.80;;
13349;SDS011;6744;53.190;6.576;2022-08-07T02:10:15;5.03;;;4.63;;
13349;SDS011;6744;53.190;6.576;2022-08-07T02:12:47;4.60;;;4.20;;
13349;SDS011;6744;53.190;6.576;2022-08-07T02:15:13;4.13;;;3.80;;
13349;SDS011;6744;53.190;6.576;2022-08-07T02:17:40;4.63;;;4.23;;
13349;SDS011;6744;53.190;6.576;2022-08-07T02:20:07;5.30;;;4.80;;
13349;SDS011;6744;53.190;6.576;2022-08-07T02:22:34;5.13;;;4.63;;
13349;SDS011;6744;53.190;6.576;2022-08-07T02:25:01;4.93;;;4.53;;
13349;SDS011;6744;53.190;6.576;2022-08-07T02:27:27;5.03;;;4.63;;
13349;SDS011;6744;53.190;6.576;2022-08-07T02:29:53;5.20;;;4.70;;
13349;SDS011;6744;53.190;6.576;2022-08-07T02:32:20;4.70;;;4.30;;
13349;SDS011;6744;53.190;6.576;2022-08-07T02:34:46;5.23;;;4.80;;
13349;SDS011;6744;53.190;6.576;2022-08-07T02:37:13;5.13;;;4.63;;
13349;SDS011;6744;53.190;6.576;2022-08-07T02:39:39;5.23;;;4.73;;
13349;SDS011;6744;53.190;6.576;2022-08-07T02:42:07;4.97;;;4.57;;
13349;SDS011;6744;53.190;6.576;2022-08-07T02:44:33;4.83;;;4.43;;
13349;SDS011;6744;53.190;6.576;2022-08-07T02:47:00;4.50;;;4.10;;
13349;SDS011;6744;53.190;6.576;2022-08-07T02:49:27;5.00;;;4.60;;
13349;SDS011;6744;53.190;6.576;2022-08-07T02:51:53;5.07;;;4.37;;
13349;SDS011;6744;53.190;6.576;2022-08-07T02:54:20;4.83;;;4.43;;
13349;SDS011;6744;53.190;6.576;2022-08-07T02:56:48;5.33;;;4.83;;
13349;SDS011;6744;53.190;6.576;2022-08-07T02:59:16;5.63;;;5.03;;
13349;SDS011;6744;53.190;6.576;2022-08-07T03:01:43;5.53;;;5.00;;
13349;SDS011;6744;53.190;6.576;2022-08-07T03:04:10;5.30;;;4.80;;
13349;SDS011;6744;53.190;6.576;2022-08-07T03:06:36;6.10;;;5.50;;
13349;SDS011;6744;53.190;6.576;2022-08-07T03:09:03;5.97;;;5.47;;
13349;SDS011;6744;53.190;6.576;2022-08-07T03:11:29;6.13;;;5.50;;
13349;SDS011;6744;53.190;6.576;2022-08-07T03:13:55;5.70;;;5.20;;
13349;SDS011;6744;53.190;6.576;2022-08-07T03:16:21;5.23;;;4.73;;
13349;SDS011;6744;53.190;6.576;2022-08-07T03:18:47;6.00;;;5.50;;
13349;SDS011;6744;53.190;6.576;2022-08-07T03:21:13;5.40;;;4.90;;
13349;SDS011;6744;53.190;6.576;2022-08-07T03:23:38;5.07;;;4.57;;
13349;SDS011;6744;53.190;6.576;2022-08-07T03:26:05;5.67;;;5.17;;
13349;SDS011;6744;53.190;6.576;2022-08-07T03:28:31;5.70;;;5.20;;
13349;SDS011;6744;53.190;6.576;2022-08-07T03:30:59;5.30;;;4.90;;
13349;SDS011;6744;53.190;6.576;2022-08-07T03:33:49;5.77;;;5.17;;
13349;SDS011;6744;53.190;6.576;2022-08-07T03:36:17;5.80;;;5.20;;
13349;SDS011;6744;53.190;6.576;2022-08-07T03:38:45;5.90;;;5.30;;
13349;SDS011;6744;53.190;6.576;2022-08-07T03:41:11;5.83;;;5.33;;
13349;SDS011;6744;53.190;6.576;2022-08-07T03:43:37;5.93;;;5.43;;
13349;SDS011;6744;53.190;6.576;2022-08-07T03:46:02;5.87;;;5.37;;
13349;SDS011;6744;53.190;6.576;2022-08-07T03:48:30;5.80;;;5.30;;
13349;SDS011;6744;53.190;6.576;2022-08-07T03:50:56;5.57;;;4.60;;
13349;SDS011;6744;53.190;6.576;2022-08-07T03:53:22;5.10;;;4.70;;
13349;SDS011;6744;53.190;6.576;2022-08-07T03:55:48;5.13;;;4.63;;
13349;SDS011;6744;53.190;6.576;2022-08-07T03:58:15;5.10;;;4.60;;
13349;SDS011;6744;53.190;6.576;2022-08-07T04:00:41;4.33;;;3.93;;
13349;SDS011;6744;53.190;6.576;2022-08-07T04:03:09;4.90;;;4.50;;
13349;SDS011;6744;53.190;6.576;2022-08-07T04:05:34;4.57;;;4.10;;
13349;SDS011;6744;53.190;6.576;2022-08-07T04:08:00;5.30;;;4.83;;
13349;SDS011;6744;53.190;6.576;2022-08-07T04:10:27;4.87;;;4.47;;
13349;SDS011;6744;53.190;6.576;2022-08-07T04:12:53;4.60;;;4.20;;
13349;SDS011;6744;53.190;6.576;2022-08-07T04:15:19;5.07;;;4.57;;
13349;SDS011;6744;53.190;6.576;2022-08-07T04:17:44;4.83;;;4.33;;
13349;SDS011;6744;53.190;6.576;2022-08-07T04:20:11;5.30;;;4.80;;
13349;SDS011;6744;53.190;6.576;2022-08-07T04:22:37;5.40;;;4.90;;
13349;SDS011;6744;53.190;6.576;2022-08-07T04:25:04;4.87;;;4.47;;
13349;SDS011;6744;53.190;6.576;2022-08-07T04:27:30;5.40;;;4.90;;
13349;SDS011;6744;53.190;6.576;2022-08-07T04:29:55;4.97;;;4.53;;
13349;SDS011;6744;53.190;6.576;2022-08-07T04:32:21;4.63;;;4.23;;
13349;SDS011;6744;53.190;6.576;2022-08-07T04:34:47;4.73;;;4.33;;
13349;SDS011;6744;53.190;6.576;2022-08-07T04:37:14;4.77;;;4.37;;
13349;SDS011;6744;53.190;6.576;2022-08-07T04:39:40;4.87;;;4.47;;
13349;SDS011;6744;53.190;6.576;2022-08-07T04:42:05;4.90;;;4.40;;
13349;SDS011;6744;53.190;6.576;2022-08-07T04:44:31;4.87;;;4.47;;
13349;SDS011;6744;53.190;6.576;2022-08-07T04:47:10;4.60;;;4.20;;
13349;SDS011;6744;53.190;6.576;2022-08-07T04:52:20;4.57;;;4.17;;
13349;SDS011;6744;53.190;6.576;2022-08-07T04:55:05;4.87;;;4.47;;
13349;SDS011;6744;53.190;6.576;2022-08-07T05:00:42;5.53;;;5.03;;
13349;SDS011;6744;53.190;6.576;2022-08-07T05:03:23;4.93;;;4.43;;
13349;SDS011;6744;53.190;6.576;2022-08-07T05:08:33;5.60;;;5.10;;
13349;SDS011;6744;53.190;6.576;2022-08-07T05:11:14;5.20;;;4.70;;
13349;SDS011;6744;53.190;6.576;2022-08-07T05:13:57;5.23;;;4.70;;
13349;SDS011;6744;53.190;6.576;2022-08-07T05:16:27;5.70;;;4.60;;
13349;SDS011;6744;53.190;6.576;2022-08-07T05:18:59;5.40;;;4.90;;
13349;SDS011;6744;53.190;6.576;2022-08-07T05:21:32;4.97;;;4.40;;
13349;SDS011;6744;53.190;6.576;2022-08-07T05:24:00;5.23;;;4.73;;
13349;SDS011;6744;53.190;6.576;2022-08-07T05:26:28;4.97;;;4.47;;
13349;SDS011;6744;53.190;6.576;2022-08-07T05:28:56;4.97;;;4.50;;
13349;SDS011;6744;53.190;6.576;2022-08-07T05:31:27;4.33;;;3.93;;
13349;SDS011;6744;53.190;6.576;2022-08-07T05:33:57;5.37;;;4.60;;
13349;SDS011;6744;53.190;6.576;2022-08-07T05:36:23;4.60;;;4.20;;
13349;SDS011;6744;53.190;6.576;2022-08-07T05:38:49;4.50;;;4.10;;
13349;SDS011;6744;53.190;6.576;2022-08-07T05:41:15;5.03;;;4.53;;
13349;SDS011;6744;53.190;6.576;2022-08-07T05:43:43;4.80;;;4.40;;
13349;SDS011;6744;53.190;6.576;2022-08-07T05:46:10;4.87;;;4.37;;
13349;SDS011;6744;53.190;6.576;2022-08-07T05:48:36;5.13;;;4.53;;
13349;SDS011;6744;53.190;6.576;2022-08-07T05:51:02;4.77;;;4.27;;
13349;SDS011;6744;53.190;6.576;2022-08-07T05:53:28;4.63;;;4.23;;
13349;SDS011;6744;53.190;6.576;2022-08-07T05:55:53;5.67;;;5.17;;
13349;SDS011;6744;53.190;6.576;2022-08-07T05:58:21;5.13;;;4.63;;
13349;SDS011;6744;53.190;6.576;2022-08-07T06:00:48;4.70;;;4.30;;
13349;SDS011;6744;53.190;6.576;2022-08-07T06:03:14;5.10;;;4.40;;
13349;SDS011;6744;53.190;6.576;2022-08-07T06:05:40;5.40;;;4.50;;
13349;SDS011;6744;53.190;6.576;2022-08-07T06:08:06;4.33;;;3.97;;
13349;SDS011;6744;53.190;6.576;2022-08-07T06:10:32;5.00;;;4.60;;
13349;SDS011;6744;53.190;6.576;2022-08-07T06:13:00;4.80;;;4.40;;
13349;SDS011;6744;53.190;6.576;2022-08-07T06:15:26;5.00;;;4.60;;
13349;SDS011;6744;53.190;6.576;2022-08-07T06:17:53;4.73;;;4.33;;
13349;SDS011;6744;53.190;6.576;2022-08-07T06:20:19;5.03;;;4.53;;
13349;SDS011;6744;53.190;6.576;2022-08-07T06:22:45;5.47;;;4.40;;
13349;SDS011;6744;53.190;6.576;2022-08-07T06:25:11;5.00;;;4.43;;
13349;SDS011;6744;53.190;6.576;2022-08-07T06:27:37;4.73;;;4.33;;
13349;SDS011;6744;53.190;6.576;2022-08-07T06:30:02;4.33;;;3.93;;
13349;SDS011;6744;53.190;6.576;2022-08-07T06:32:28;4.03;;;3.63;;
13349;SDS011;6744;53.190;6.576;2022-08-07T06:34:55;4.33;;;3.93;;
13349;SDS011;6744;53.190;6.576;2022-08-07T06:37:20;4.13;;;3.83;;
13349;SDS011;6744;53.190;6.576;2022-08-07T06:39:45;4.30;;;3.90;;
13349;SDS011;6744;53.190;6.576;2022-08-07T06:42:15;4.60;;;4.20;;
13349;SDS011;6744;53.190;6.576;2022-08-07T06:44:43;4.77;;;4.23;;
13349;SDS011;6744;53.190;6.576;2022-08-07T06:47:10;5.70;;;4.33;;
13349;SDS011;6744;53.190;6.576;2022-08-07T06:49:35;4.33;;;3.93;;
13349;SDS011;6744;53.190;6.576;2022-08-07T06:52:01;4.70;;;4.30;;
13349;SDS011;6744;53.190;6.576;2022-08-07T06:54:27;4.43;;;3.80;;
13349;SDS011;6744;53.190;6.576;2022-08-07T06:56:53;3.93;;;3.60;;
13349;SDS011;6744;53.190;6.576;2022-08-07T06:59:20;4.40;;;4.00;;
13349;SDS011;6744;53.190;6.576;2022-08-07T07:01:48;4.90;;;3.70;;
13349;SDS011;6744;53.190;6.576;2022-08-07T07:04:14;3.87;;;3.57;;
13349;SDS011;6744;53.190;6.576;2022-08-07T07:06:40;3.90;;;3.57;;
13349;SDS011;6744;53.190;6.576;2022-08-07T07:15:04;4.00;;;3.60;;
13349;SDS011;6744;53.190;6.576;2022-08-07T07:20:32;4.03;;;3.30;;
13349;SDS011;6744;53.190;6.576;2022-08-07T07:23:00;3.23;;;2.93;;
13349;SDS011;6744;53.190;6.576;2022-08-07T07:25:25;3.83;;;2.87;;
13349;SDS011;6744;53.190;6.576;2022-08-07T07:27:59;3.20;;;2.90;;
13349;SDS011;6744;53.190;6.576;2022-08-07T07:30:29;3.30;;;2.70;;
13349;SDS011;6744;53.190;6.576;2022-08-07T07:32:57;3.10;;;2.80;;
13349;SDS011;6744;53.190;6.576;2022-08-07T07:35:23;2.80;;;2.60;;
13349;SDS011;6744;53.190;6.576;2022-08-07T07:37:49;3.33;;;2.43;;
13349;SDS011;6744;53.190;6.576;2022-08-07T07:40:16;2.40;;;2.20;;
13349;SDS011;6744;53.190;6.576;2022-08-07T07:42:43;2.57;;;2.37;;
13349;SDS011;6744;53.190;6.576;2022-08-07T07:45:09;3.00;;;2.30;;
13349;SDS011;6744;53.190;6.576;2022-08-07T07:47:36;3.30;;;3.00;;
13349;SDS011;6744;53.190;6.576;2022-08-07T07:50:04;3.00;;;2.70;;
13349;SDS011;6744;53.190;6.576;2022-08-07T07:52:30;3.17;;;2.57;;
13349;SDS011;6744;53.190;6.576;2022-08-07T07:54:56;3.13;;;2.60;;
13349;SDS011;6744;53.190;6.576;2022-08-07T07:57:22;3.23;;;2.60;;
13349;SDS011;6744;53.190;6.576;2022-08-07T07:59:48;2.67;;;2.27;;
13349;SDS011;6744;53.190;6.576;2022-08-07T08:02:14;5.67;;;3.53;;
13349;SDS011;6744;53.190;6.576;2022-08-07T08:04:41;3.73;;;3.27;;
13349;SDS011;6744;53.190;6.576;2022-08-07T08:07:07;2.90;;;2.60;;
13349;SDS011;6744;53.190;6.576;2022-08-07T08:09:33;4.20;;;3.10;;
13349;SDS011;6744;53.190;6.576;2022-08-07T08:12:01;3.50;;;3.20;;
13349;SDS011;6744;53.190;6.576;2022-08-07T08:14:28;4.13;;;3.10;;
13349;SDS011;6744;53.190;6.576;2022-08-07T08:16:54;3.90;;;3.13;;
13349;SDS011;6744;53.190;6.576;2022-08-07T08:19:23;3.37;;;3.07;;
13349;SDS011;6744;53.190;6.576;2022-08-07T08:21:50;3.10;;;2.90;;
13349;SDS011;6744;53.190;6.576;2022-08-07T08:24:38;3.60;;;3.30;;
13349;SDS011;6744;53.190;6.576;2022-08-07T08:27:25;3.60;;;3.30;;
13349;SDS011;6744;53.190;6.576;2022-08-07T08:30:11;3.30;;;2.90;;
13349;SDS011;6744;53.190;6.576;2022-08-07T08:32:38;4.67;;;3.40;;
13349;SDS011;6744;53.190;6.576;2022-08-07T08:35:06;3.57;;;3.07;;
13349;SDS011;6744;53.190;6.576;2022-08-07T08:37:34;3.00;;;2.80;;
13349;SDS011;6744;53.190;6.576;2022-08-07T08:40:01;3.67;;;3.10;;
13349;SDS011;6744;53.190;6.576;2022-08-07T08:48:45;2.87;;;2.53;;
13349;SDS011;6744;53.190;6.576;2022-08-07T08:54:01;3.27;;;2.97;;
13349;SDS011;6744;53.190;6.576;2022-08-07T08:56:43;2.60;;;2.37;;
13349;SDS011;6744;53.190;6.576;2022-08-07T09:10:22;3.63;;;2.97;;
13349;SDS011;6744;53.190;6.576;2022-08-07T09:15:53;3.20;;;2.80;;
13349;SDS011;6744;53.190;6.576;2022-08-07T09:21:31;3.60;;;2.63;;
13349;SDS011;6744;53.190;6.576;2022-08-07T09:32:20;2.73;;;2.53;;
13349;SDS011;6744;53.190;6.576;2022-08-07T09:35:13;2.67;;;2.47;;
13349;SDS011;6744;53.190;6.576;2022-08-07T09:52:39;2.60;;;2.40;;
13349;SDS011;6744;53.190;6.576;2022-08-07T09:55:19;2.50;;;2.30;;
13349;SDS011;6744;53.190;6.576;2022-08-07T09:58:37;2.57;;;2.37;;
13349;SDS011;6744;53.190;6.576;2022-08-07T10:04:09;2.63;;;2.43;;
13349;SDS011;6744;53.190;6.576;2022-08-07T10:10:02;2.80;;;2.27;;
13349;SDS011;6744;53.190;6.576;2022-08-07T10:18:19;2.83;;;2.40;;
13349;SDS011;6744;53.190;6.576;2022-08-07T10:29:01;3.20;;;2.20;;
13349;SDS011;6744;53.190;6.576;2022-08-07T10:31:52;3.20;;;2.20;;
13349;SDS011;6744;53.190;6.576;2022-08-07T10:47:39;2.10;;;1.90;;
13349;SDS011;6744;53.190;6.576;2022-08-07T10:50:20;2.20;;;2.00;;
13349;SDS011;6744;53.190;6.576;2022-08-07T10:55:43;2.30;;;1.67;;
13349;SDS011;6744;53.190;6.576;2022-08-07T11:03:54;2.33;;;1.90;;
13349;SDS011;6744;53.190;6.576;2022-08-07T11:08:59;1.73;;;1.50;;
13349;SDS011;6744;53.190;6.576;2022-08-07T11:11:32;1.60;;;1.50;;
13349;SDS011;6744;53.190;6.576;2022-08-07T11:14:02;1.90;;;1.80;;
13349;SDS011;6744;53.190;6.576;2022-08-07T11:17:06;1.87;;;1.77;;
13349;SDS011;6744;53.190;6.576;2022-08-07T11:22:40;2.23;;;2.00;;
13349;SDS011;6744;53.190;6.576;2022-08-07T11:25:24;2.00;;;1.80;;
13349;SDS011;6744;53.190;6.576;2022-08-07T11:28:00;1.77;;;1.67;;
13349;SDS011;6744;53.190;6.576;2022-08-07T11:44:52;2.03;;;1.90;;
13349;SDS011;6744;53.190;6.576;2022-08-07T11:52:50;1.50;;;1.40;;
13349;SDS011;6744;53.190;6.576;2022-08-07T11:55:31;1.83;;;1.53;;
13349;SDS011;6744;53.190;6.576;2022-08-07T12:00:38;1.50;;;1.37;;
13349;SDS011;6744;53.190;6.576;2022-08-07T12:11:54;1.70;;;1.60;;
13349;SDS011;6744;53.190;6.576;2022-08-07T12:14:24;1.80;;;1.70;;
13349;SDS011;6744;53.190;6.576;2022-08-07T12:16:57;1.70;;;1.60;;
13349;SDS011;6744;53.190;6.576;2022-08-07T12:24:38;2.47;;;1.80;;
13349;SDS011;6744;53.190;6.576;2022-08-07T12:27:32;1.90;;;1.60;;
13349;SDS011;6744;53.190;6.576;2022-08-07T12:30:03;1.40;;;1.30;;
13349;SDS011;6744;53.190;6.576;2022-08-07T12:32:33;1.43;;;1.27;;
13349;SDS011;6744;53.190;6.576;2022-08-07T12:35:03;1.50;;;1.40;;
13349;SDS011;6744;53.190;6.576;2022-08-07T12:37:32;1.83;;;1.30;;
13349;SDS011;6744;53.190;6.576;2022-08-07T12:39:58;1.50;;;1.40;;
13349;SDS011;6744;53.190;6.576;2022-08-07T12:42:26;1.83;;;1.50;;
13349;SDS011;6744;53.190;6.576;2022-08-07T12:44:52;2.47;;;1.70;;
13349;SDS011;6744;53.190;6.576;2022-08-07T12:50:02;1.60;;;1.50;;
13349;SDS011;6744;53.190;6.576;2022-08-07T12:58:37;2.80;;;1.90;;
13349;SDS011;6744;53.190;6.576;2022-08-07T13:09:16;2.83;;;2.10;;
13349;SDS011;6744;53.190;6.576;2022-08-07T13:15:02;2.33;;;2.13;;
13349;SDS011;6744;53.190;6.576;2022-08-07T13:20:17;1.90;;;1.80;;
13349;SDS011;6744;53.190;6.576;2022-08-07T13:22:51;3.40;;;2.20;;
13349;SDS011;6744;53.190;6.576;2022-08-07T13:28:32;3.03;;;1.87;;
13349;SDS011;6744;53.190;6.576;2022-08-07T13:31:03;2.50;;;2.30;;
13349;SDS011;6744;53.190;6.576;2022-08-07T13:36:22;2.30;;;2.10;;
13349;SDS011;6744;53.190;6.576;2022-08-07T13:38:54;3.30;;;3.10;;
13349;SDS011;6744;53.190;6.576;2022-08-07T13:41:44;2.47;;;2.27;;
13349;SDS011;6744;53.190;6.576;2022-08-07T13:44:24;3.13;;;2.10;;
13349;SDS011;6744;53.190;6.576;2022-08-07T13:46:56;2.27;;;1.80;;
13349;SDS011;6744;53.190;6.576;2022-08-07T13:49:23;1.60;;;1.50;;
13349;SDS011;6744;53.190;6.576;2022-08-07T13:51:49;2.73;;;1.60;;
13349;SDS011;6744;53.190;6.576;2022-08-07T13:54:15;2.10;;;1.90;;
13349;SDS011;6744;53.190;6.576;2022-08-07T13:56:42;2.37;;;1.80;;
13349;SDS011;6744;53.190;6.576;2022-08-07T13:59:10;2.30;;;1.87;;
13349;SDS011;6744;53.190;6.576;2022-08-07T14:01:43;2.13;;;1.90;;
13349;SDS011;6744;53.190;6.576;2022-08-07T14:04:13;2.63;;;1.60;;
13349;SDS011;6744;53.190;6.576;2022-08-07T14:06:40;2.27;;;1.70;;
13349;SDS011;6744;53.190;6.576;2022-08-07T14:09:23;2.23;;;1.80;;
13349;SDS011;6744;53.190;6.576;2022-08-07T14:11:51;2.00;;;1.80;;
13349;SDS011;6744;53.190;6.576;2022-08-07T14:14:19;2.80;;;1.80;;
13349;SDS011;6744;53.190;6.576;2022-08-07T14:16:48;2.00;;;1.77;;
13349;SDS011;6744;53.190;6.576;2022-08-07T14:19:17;2.60;;;1.80;;
13349;SDS011;6744;53.190;6.576;2022-08-07T14:21:48;1.70;;;1.60;;
13349;SDS011;6744;53.190;6.576;2022-08-07T14:24:19;1.97;;;1.80;;
13349;SDS011;6744;53.190;6.576;2022-08-07T14:26:49;2.17;;;1.97;;
13349;SDS011;6744;53.190;6.576;2022-08-07T14:29:21;2.00;;;1.70;;
13349;SDS011;6744;53.190;6.576;2022-08-07T14:31:49;2.10;;;1.90;;
13349;SDS011;6744;53.190;6.576;2022-08-07T14:34:15;4.60;;;1.90;;
13349;SDS011;6744;53.190;6.576;2022-08-07T14:36:44;1.90;;;1.60;;
13349;SDS011;6744;53.190;6.576;2022-08-07T14:39:09;2.73;;;2.10;;
13349;SDS011;6744;53.190;6.576;2022-08-07T14:41:35;1.87;;;1.73;;
13349;SDS011;6744;53.190;6.576;2022-08-07T14:44:04;2.27;;;1.60;;
13349;SDS011;6744;53.190;6.576;2022-08-07T14:46:32;2.67;;;1.50;;
13349;SDS011;6744;53.190;6.576;2022-08-07T14:48:59;2.00;;;1.60;;
13349;SDS011;6744;53.190;6.576;2022-08-07T14:51:25;4.47;;;2.50;;
13349;SDS011;6744;53.190;6.576;2022-08-07T14:53:52;4.73;;;2.63;;
13349;SDS011;6744;53.190;6.576;2022-08-07T14:56:18;3.23;;;2.10;;
13349;SDS011;6744;53.190;6.576;2022-08-07T14:58:47;1.70;;;1.60;;
13349;SDS011;6744;53.190;6.576;2022-08-07T15:01:15;2.40;;;1.63;;
13349;SDS011;6744;53.190;6.576;2022-08-07T15:03:41;2.57;;;2.00;;
13349;SDS011;6744;53.190;6.576;2022-08-07T15:06:07;2.73;;;2.10;;
13349;SDS011;6744;53.190;6.576;2022-08-07T15:08:37;3.13;;;2.40;;
13349;SDS011;6744;53.190;6.576;2022-08-07T15:11:10;2.07;;;1.87;;
13349;SDS011;6744;53.190;6.576;2022-08-07T15:13:37;2.13;;;2.03;;
13349;SDS011;6744;53.190;6.576;2022-08-07T15:16:13;2.67;;;2.17;;
13349;SDS011;6744;53.190;6.576;2022-08-07T15:18:42;2.27;;;1.93;;
13349;SDS011;6744;53.190;6.576;2022-08-07T15:21:25;2.30;;;2.03;;
13349;SDS011;6744;53.190;6.576;2022-08-07T15:23:54;2.37;;;1.93;;
13349;SDS011;6744;53.190;6.576;2022-08-07T15:26:22;2.10;;;1.70;;
13349;SDS011;6744;53.190;6.576;2022-08-07T15:28:55;1.93;;;1.73;;
13349;SDS011;6744;53.190;6.576;2022-08-07T15:31:21;2.70;;;1.73;;
13349;SDS011;6744;53.190;6.576;2022-08-07T15:33:47;1.90;;;1.57;;
13349;SDS011;6744;53.190;6.576;2022-08-07T15:36:13;1.70;;;1.60;;
13349;SDS011;6744;53.190;6.576;2022-08-07T15:38:39;1.80;;;1.70;;
13349;SDS011;6744;53.190;6.576;2022-08-07T15:41:08;1.77;;;1.57;;
13349;SDS011;6744;53.190;6.576;2022-08-07T15:43:36;3.13;;;1.90;;
13349;SDS011;6744;53.190;6.576;2022-08-07T15:46:14;2.23;;;1.83;;
13349;SDS011;6744;53.190;6.576;2022-08-07T15:48:51;2.77;;;1.97;;
13349;SDS011;6744;53.190;6.576;2022-08-07T15:51:17;3.07;;;1.80;;
13349;SDS011;6744;53.190;6.576;2022-08-07T15:53:48;2.70;;;2.20;;
13349;SDS011;6744;53.190;6.576;2022-08-07T15:56:15;2.47;;;2.00;;
13349;SDS011;6744;53.190;6.576;2022-08-07T16:01:20;2.30;;;2.10;;
13349;SDS011;6744;53.190;6.576;2022-08-07T16:03:48;3.73;;;3.30;;
13349;SDS011;6744;53.190;6.576;2022-08-07T16:06:15;4.73;;;4.43;;
13349;SDS011;6744;53.190;6.576;2022-08-07T16:09:03;2.90;;;2.00;;
13349;SDS011;6744;53.190;6.576;2022-08-07T16:17:22;2.87;;;2.30;;
13349;SDS011;6744;53.190;6.576;2022-08-07T16:31:12;2.70;;;2.30;;
13349;SDS011;6744;53.190;6.576;2022-08-07T16:33:59;4.10;;;2.80;;
13349;SDS011;6744;53.190;6.576;2022-08-07T16:42:07;4.40;;;2.40;;
13349;SDS011;6744;53.190;6.576;2022-08-07T16:54:57;4.50;;;2.87;;
13349;SDS011;6744;53.190;6.576;2022-08-07T16:57:32;4.07;;;3.00;;
13349;SDS011;6744;53.190;6.576;2022-08-07T17:05:28;4.50;;;3.40;;
13349;SDS011;6744;53.190;6.576;2022-08-07T17:08:02;3.37;;;3.03;;
13349;SDS011;6744;53.190;6.576;2022-08-07T17:18:39;3.10;;;2.80;;
13349;SDS011;6744;53.190;6.576;2022-08-07T17:21:13;3.63;;;3.00;;
13349;SDS011;6744;53.190;6.576;2022-08-07T17:23:46;4.63;;;3.00;;
13349;SDS011;6744;53.190;6.576;2022-08-07T17:26:22;4.13;;;2.40;;
13349;SDS011;6744;53.190;6.576;2022-08-07T17:31:38;5.53;;;3.27;;
13349;SDS011;6744;53.190;6.576;2022-08-07T17:34:27;2.77;;;2.50;;
13349;SDS011;6744;53.190;6.576;2022-08-07T17:37:16;4.27;;;2.80;;
13349;SDS011;6744;53.190;6.576;2022-08-07T17:45:33;4.67;;;2.23;;
13349;SDS011;6744;53.190;6.576;2022-08-07T17:48:04;5.47;;;2.50;;
13349;SDS011;6744;53.190;6.576;2022-08-07T17:50:35;4.00;;;2.40;;
13349;SDS011;6744;53.190;6.576;2022-08-07T17:53:29;3.40;;;2.50;;
13349;SDS011;6744;53.190;6.576;2022-08-07T17:58:36;3.73;;;2.53;;
13349;SDS011;6744;53.190;6.576;2022-08-07T18:01:10;3.47;;;2.20;;
13349;SDS011;6744;53.190;6.576;2022-08-07T18:04:33;3.77;;;2.27;;
13349;SDS011;6744;53.190;6.576;2022-08-07T18:06:47;4.30;;;1.90;;
13349;SDS011;6744;53.190;6.576;2022-08-07T18:09:20;3.87;;;1.90;;
13349;SDS011;6744;53.190;6.576;2022-08-07T18:11:54;3.90;;;1.90;;
13349;SDS011;6744;53.190;6.576;2022-08-07T18:14:38;2.87;;;1.70;;
13349;SDS011;6744;53.190;6.576;2022-08-07T18:20:22;2.53;;;1.83;;
13349;SDS011;6744;53.190;6.576;2022-08-07T18:22:56;3.53;;;1.60;;
13349;SDS011;6744;53.190;6.576;2022-08-07T18:25:27;2.40;;;1.50;;
13349;SDS011;6744;53.190;6.576;2022-08-07T18:30:37;3.27;;;1.70;;
13349;SDS011;6744;53.190;6.576;2022-08-07T18:38:17;2.10;;;1.40;;
13349;SDS011;6744;53.190;6.576;2022-08-07T18:43:38;2.17;;;1.40;;
13349;SDS011;6744;53.190;6.576;2022-08-07T18:46:18;1.47;;;1.37;;
13349;SDS011;6744;53.190;6.576;2022-08-07T18:51:18;2.37;;;1.60;;
13349;SDS011;6744;53.190;6.576;2022-08-07T18:56:43;1.40;;;1.30;;
13349;SDS011;6744;53.190;6.576;2022-08-07T18:59:15;2.80;;;1.33;;
13349;SDS011;6744;53.190;6.576;2022-08-07T19:02:09;1.83;;;1.23;;
13349;SDS011;6744;53.190;6.576;2022-08-07T19:04:41;1.53;;;1.20;;
13349;SDS011;6744;53.190;6.576;2022-08-07T19:07:24;3.10;;;1.40;;
13349;SDS011;6744;53.190;6.576;2022-08-07T19:10:04;1.47;;;1.10;;
13349;SDS011;6744;53.190;6.576;2022-08-07T19:12:33;1.90;;;1.27;;
13349;SDS011;6744;53.190;6.576;2022-08-07T19:15:23;2.03;;;1.20;;
13349;SDS011;6744;53.190;6.576;2022-08-07T19:18:19;2.57;;;1.30;;
13349;SDS011;6744;53.190;6.576;2022-08-07T19:20:53;2.07;;;1.10;;
13349;SDS011;6744;53.190;6.576;2022-08-07T19:23:30;1.60;;;1.07;;
13349;SDS011;6744;53.190;6.576;2022-08-07T19:26:01;1.40;;;1.20;;
13349;SDS011;6744;53.190;6.576;2022-08-07T19:28:27;1.83;;;1.30;;
13349;SDS011;6744;53.190;6.576;2022-08-07T19:30:56;1.70;;;1.30;;
13349;SDS011;6744;53.190;6.576;2022-08-07T19:33:32;2.23;;;1.20;;
13349;SDS011;6744;53.190;6.576;2022-08-07T19:36:00;1.17;;;1.03;;